Map

Track Data

SID SEASON NUMBER BASIN SUBBASIN NAME ISO_TIME NATURE LAT LON WMO_WIND WMO_PRES WMO_AGENCY TRACK_TYPE DIST2LAND LANDFALL IFLAG USA_AGENCY USA_ATCF_ID USA_LAT USA_LON USA_RECORD USA_STATUS USA_WIND USA_PRES USA_SSHS USA_R34_NE USA_R34_SE USA_R34_SW USA_R34_NW USA_R50_NE USA_R50_SE USA_R50_SW USA_R50_NW USA_R64_NE USA_R64_SE USA_R64_SW USA_R64_NW USA_POCI USA_ROCI USA_RMW USA_EYE TOKYO_LAT TOKYO_LON TOKYO_GRADE TOKYO_WIND TOKYO_PRES TOKYO_R50_DIR TOKYO_R50_LONG TOKYO_R50_SHORT TOKYO_R30_DIR TOKYO_R30_LONG TOKYO_R30_SHORT TOKYO_LAND CMA_LAT CMA_LON CMA_CAT CMA_WIND CMA_PRES HKO_LAT HKO_LON HKO_CAT HKO_WIND HKO_PRES NEWDELHI_LAT NEWDELHI_LON NEWDELHI_GRADE NEWDELHI_WIND NEWDELHI_PRES NEWDELHI_CI NEWDELHI_DP NEWDELHI_POCI REUNION_LAT REUNION_LON REUNION_TYPE REUNION_WIND REUNION_PRES REUNION_TNUM REUNION_CI REUNION_RMW REUNION_R34_NE REUNION_R34_SE REUNION_R34_SW REUNION_R34_NW REUNION_R50_NE REUNION_R50_SE REUNION_R50_SW REUNION_R50_NW REUNION_R64_NE REUNION_R64_SE REUNION_R64_SW REUNION_R64_NW BOM_LAT BOM_LON BOM_TYPE BOM_WIND BOM_PRES BOM_TNUM BOM_CI BOM_RMW BOM_R34_NE BOM_R34_SE BOM_R34_SW BOM_R34_NW BOM_R50_NE BOM_R50_SE BOM_R50_SW BOM_R50_NW BOM_R64_NE BOM_R64_SE BOM_R64_SW BOM_R64_NW BOM_ROCI BOM_POCI BOM_EYE BOM_POS_METHOD BOM_PRES_METHOD NADI_LAT NADI_LON NADI_CAT NADI_WIND NADI_PRES WELLINGTON_LAT WELLINGTON_LON WELLINGTON_WIND WELLINGTON_PRES DS824_LAT DS824_LON DS824_STAGE DS824_WIND DS824_PRES TD9636_LAT TD9636_LON TD9636_STAGE TD9636_WIND TD9636_PRES TD9635_LAT TD9635_LON TD9635_WIND TD9635_PRES TD9635_ROCI NEUMANN_LAT NEUMANN_LON NEUMANN_CLASS NEUMANN_WIND NEUMANN_PRES MLC_LAT MLC_LON MLC_CLASS MLC_WIND MLC_PRES USA_GUST BOM_GUST BOM_GUST_PER REUNION_GUST REUNION_GUST_PER USA_SEAHGT USA_SEARAD_NE USA_SEARAD_SE USA_SEARAD_SW USA_SEARAD_NW STORM_SPEED STORM_DIR
1969325N14118 1969 112 WP MM NOT_NAMED 1969-11-21 00:00:00 TS 13.7000 118.300 main 218 218 __O___________ -1 13.7000 118.300 1 29 1006 10 243
1969325N14118 1969 112 WP MM NOT_NAMED 1969-11-21 03:00:00 TS 13.4777 117.847 main 270 270 __P___________ -1 13.4777 117.847 1 29 1005 10 245
1969325N14118 1969 112 WP MM NOT_NAMED 1969-11-21 06:00:00 TS 13.3000 117.400 main 314 314 __O___________ -1 13.3000 117.400 1 29 1005 9 252
1969325N14118 1969 112 WP MM NOT_NAMED 1969-11-21 09:00:00 TS 13.1924 116.958 main 343 343 __P___________ -1 13.1924 116.958 1 29 1005 9 257
1969325N14118 1969 112 WP MM NOT_NAMED 1969-11-21 12:00:00 TS 13.1000 116.500 main 380 380 __O___________ -1 13.1000 116.500 1 29 1005 9 256
1969325N14118 1969 112 WP MM NOT_NAMED 1969-11-21 15:00:00 TS 12.9649 116.015 main 421 416 __P___________ -1 12.9649 116.015 1 29 1004 10 253
1969325N14118 1969 112 WP MM NOT_NAMED 1969-11-21 18:00:00 TS 12.8000 115.500 main 460 460 __O___________ -1 12.8000 115.500 1 29 1004 11 252
1969325N14118 1969 112 WP MM NOT_NAMED 1969-11-21 21:00:00 TS 12.6301 114.935 main 495 495 __P___________ -1 12.6301 114.935 1 33 1004 11 250
1969325N14118 1969 112 WP MM NOT_NAMED 1969-11-22 00:00:00 TS 12.4000 114.400 main 516 493 __O___________ -1 12.4000 114.400 2 38 1004 11 236
1969325N14118 1969 112 WP MM NOT_NAMED 1969-11-22 03:00:00 TS 11.9973 113.992 main 493 457 __P___________ -1 11.9973 113.992 2 38 1004 11 228
1969325N14118 1969 112 WP MM NOT_NAMED 1969-11-22 06:00:00 TS 11.7000 113.600 main 457 393 __O___________ -1 11.7000 113.600 2 38 1004 10 256
1969325N14118 1969 112 WP MM NOT_NAMED 1969-11-22 09:00:00 TS 11.7603 113.018 main 391 343 __P___________ -1 11.7603 113.018 2 38 1004 10 287
1969325N14118 1969 112 WP MM NOT_NAMED 1969-11-22 12:00:00 TS 12.0000 112.600 main 343 338 __O___________ -1 12.0000 112.600 2 38 1004 7 326
1969325N14118 1969 112 WP MM NOT_NAMED 1969-11-22 15:00:00 TS 12.3099 112.645 main 338 338 __P___________ -1 12.3099 112.645 2 38 1004 6 30
1969325N14118 1969 112 WP MM NOT_NAMED 1969-11-22 18:00:00 TS 12.5000 112.900 main 369 369 __O___________ -1 12.5000 112.900 2 38 1004 5 88
1969325N14118 1969 112 WP MM NOT_NAMED 1969-11-22 21:00:00 TS 12.3250 113.108 main 392 392 __P___________ -1 12.3250 113.108 2 43 1003 6 142
1969325N14118 1969 112 WP MM NOT_NAMED 1969-11-23 00:00:00 TS 12.0000 113.300 main 418 418 __O___________ -1 12.0000 113.300 3 48 1002 7 153
1969325N14118 1969 112 WP MM NOT_NAMED 1969-11-23 03:00:00 TS 11.7200 113.415 main 436 436 __P___________ -1 11.7200 113.415 3 48 1002 5 159
1969325N14118 1969 112 WP MM NOT_NAMED 1969-11-23 06:00:00 TS 11.5000 113.500 main 452 452 __O___________ -1 11.5000 113.500 3 48 1002 4 148
1969325N14118 1969 112 WP MM NOT_NAMED 1969-11-23 09:00:00 TS 11.4200 113.607 main 466 466 __P___________ -1 11.4200 113.607 3 43 1003 2 117
1969325N14118 1969 112 WP MM NOT_NAMED 1969-11-23 12:00:00 TS 11.4000 113.700 main 476 476 __O___________ -1 11.4000 113.700 2 38 1004 2 117
1969325N14118 1969 112 WP MM NOT_NAMED 1969-11-23 15:00:00 TS 11.3500 113.750 main 486 479 __P___________ -1 11.3500 113.750 2 38 1004 1 137
1969325N14118 1969 112 WP MM NOT_NAMED 1969-11-23 18:00:00 TS 11.3000 113.800 main 486 477 __O___________ -1 11.3000 113.800 2 38 1004 2 125
1969325N14118 1969 112 WP MM NOT_NAMED 1969-11-23 21:00:00 TS 11.2575 113.893 main 477 461 __P___________ -1 11.2575 113.893 2 38 1004 2 117
1969325N14118 1969 112 WP MM NOT_NAMED 1969-11-24 00:00:00 TS 11.2000 114.000 main 461 446 __O___________ -1 11.2000 114.000 2 38 1004 3 119
1969325N14118 1969 112 WP MM NOT_NAMED 1969-11-24 03:00:00 TS 11.1300 114.123 main 446 431 __P___________ -1 11.1300 114.123 2 38 1004 3 135
1969325N14118 1969 112 WP MM NOT_NAMED 1969-11-24 06:00:00 TS 11.0000 114.200 main 431 419 __O___________ -1 11.0000 114.200 2 38 1005 4 172
1969325N14118 1969 112 WP MM NOT_NAMED 1969-11-24 09:00:00 TS 10.7500 114.180 main 413 407 __P___________ -1 10.7500 114.180 2 33 1005 5 191
1969325N14118 1969 112 WP MM NOT_NAMED 1969-11-24 12:00:00 TS 10.5000 114.100 main 410 404 __O___________ -1 10.5000 114.100 1 29 1006 4 204
1969325N14118 1969 112 WP MM NOT_NAMED 1969-11-24 15:00:00 TS 10.3775 114.015 main 414 409 __P___________ -1 10.3775 114.015 1 29 1006 3 225
1969325N14118 1969 112 WP MM NOT_NAMED 1969-11-24 18:00:00 TS 10.3000 113.900 main 419 419 __O___________ -1 10.3000 113.900 1 29 1006 3 236
1969325N14118 1969 112 WP MM NOT_NAMED 1969-11-24 21:00:00 TS 10.2075 113.758 main 424 424 __P___________ -1 10.2075 113.758 1 29 1006 4 236
1969325N14118 1969 112 WP MM NOT_NAMED 1969-11-25 00:00:00 TS 10.1000 113.600 main 439 439 __O___________ -1 10.1000 113.600 1 29 1007 4 231
1969325N14118 1969 112 WP MM NOT_NAMED 1969-11-25 03:00:00 TS 9.95749 113.450 main 445 445 __P___________ -1 9.95749 113.450 1 24 1007 4 224
1969325N14118 1969 112 WP MM NOT_NAMED 1969-11-25 06:00:00 TS 9.80000 113.300 main 459 459 __O___________ -1 9.80000 113.300 0 19 1007 4 225
1969325N14118 1969 112 WP MM NOT_NAMED 1969-11-25 09:00:00 TS 9.67248 113.158 main 466 466 __P___________ -1 9.67248 113.158 0 19 1007 4 224
1969325N14118 1969 112 WP MM NOT_NAMED 1969-11-25 12:00:00 TS 9.50000 113.000 main 480 476 __O___________ -1 9.50000 113.000 0 19 1007 6 218
1969325N14118 1969 112 WP MM NOT_NAMED 1969-11-25 15:00:00 TS 9.20752 112.792 main 483 477 __P___________ -1 9.20752 112.792 0 19 1007 7 213
1969325N14118 1969 112 WP MM NOT_NAMED 1969-11-25 18:00:00 TS 8.90000 112.600 main 483 481 __O___________ -1 8.90000 112.600 0 19 1008 6 211
1969325N14118 1969 112 WP MM NOT_NAMED 1969-11-25 21:00:00 TS 8.72247 112.493 main 488 471 __P___________ -1 8.72247 112.493 0 19 1008 4 206
1969325N14118 1969 112 WP MM NOT_NAMED 1969-11-26 00:00:00 TS 8.50000 112.400 main 471 434 __O___________ -1 8.50000 112.400 0 19 1008 7 200
1969325N14118 1969 112 WP MM NOT_NAMED 1969-11-26 03:00:00 TS 8.07251 112.250 main 439 396 __P___________ -1 8.07251 112.250 0 19 1008 10 198
1969325N14118 1969 112 WP MM NOT_NAMED 1969-11-26 06:00:00 TS 7.60000 112.100 main 396 365 __O___________ -1 7.60000 112.100 0 19 1008 9 197
1969325N14118 1969 112 WP MM NOT_NAMED 1969-11-26 09:00:00 TS 7.21750 111.988 main 365 347 __P___________ -1 7.21750 111.988 0 21 1007 7 196
1969325N14118 1969 112 WP MM NOT_NAMED 1969-11-26 12:00:00 TS 6.90000 111.900 main 347 __O___________ -1 6.90000 111.900 1 23 1006 7 195

Digital Typhoon Data and Search

About IBTrACS Database

This database is a web-friendly format of International Best Track Archive for Climate Stewardship (IBTrACS), a global best track data archive curated by NOAA dating back to 1842.

Updated: 2021-12-03